createdAt,value
2022-08-19T00:01:38.066Z,18.90
2022-08-19T00:04:08.998Z,18.80
2022-08-19T00:06:37.482Z,18.70
2022-08-19T00:09:07.170Z,18.60
2022-08-19T00:11:34.223Z,18.60
2022-08-19T00:14:01.147Z,18.50
2022-08-19T00:16:27.818Z,18.50
2022-08-19T00:18:56.484Z,18.50
2022-08-19T00:21:25.320Z,18.50
2022-08-19T00:23:52.899Z,18.50
2022-08-19T00:26:19.751Z,18.50
2022-08-19T00:28:47.585Z,18.50
2022-08-19T00:31:14.332Z,18.40
2022-08-19T00:33:41.009Z,18.40
2022-08-19T00:36:10.291Z,18.50
2022-08-19T00:38:38.522Z,18.40
2022-08-19T00:41:06.635Z,18.40
2022-08-19T00:43:33.383Z,18.50
2022-08-19T00:46:00.676Z,18.50
2022-08-19T00:48:27.455Z,18.50
2022-08-19T00:50:56.522Z,18.60
2022-08-19T00:53:27.323Z,18.60
2022-08-19T00:55:56.790Z,18.60
2022-08-19T00:58:33.502Z,18.60
2022-08-19T01:01:01.667Z,18.60
2022-08-19T01:03:29.092Z,18.70
2022-08-19T01:06:15.939Z,18.60
2022-08-19T01:08:46.926Z,18.60
2022-08-19T01:11:17.494Z,18.70
2022-08-19T01:13:49.690Z,18.70
2022-08-19T01:16:19.745Z,18.70
2022-08-19T01:18:47.164Z,18.60
2022-08-19T01:21:25.985Z,18.70
2022-08-19T01:23:52.856Z,18.70
2022-08-19T01:26:22.768Z,18.70
2022-08-19T01:28:53.107Z,18.70
2022-08-19T01:31:26.846Z,18.70
2022-08-19T01:33:56.581Z,18.70
2022-08-19T01:36:36.912Z,18.70
2022-08-19T01:39:08.451Z,18.70
2022-08-19T01:41:35.597Z,18.60
2022-08-19T01:44:17.495Z,18.60
2022-08-19T01:46:48.266Z,18.60
2022-08-19T01:49:16.338Z,18.70
2022-08-19T01:51:43.007Z,18.70
2022-08-19T01:54:12.323Z,18.80
2022-08-19T01:56:39.576Z,18.70
2022-08-19T01:59:11.865Z,18.70
2022-08-19T02:01:38.685Z,18.70
2022-08-19T02:04:06.694Z,18.80
2022-08-19T02:06:34.139Z,18.80
2022-08-19T02:09:01.020Z,18.80
2022-08-19T02:11:32.228Z,18.80
2022-08-19T02:13:59.798Z,18.80
2022-08-19T02:16:26.556Z,18.80
2022-08-19T02:18:53.271Z,18.70
2022-08-19T02:21:22.399Z,18.70
2022-08-19T02:23:49.826Z,18.70
2022-08-19T02:26:17.142Z,18.70
2022-08-19T02:28:44.291Z,18.70
2022-08-19T02:31:13.471Z,18.60
2022-08-19T02:33:40.186Z,18.70
2022-08-19T02:36:08.407Z,18.70
2022-08-19T02:38:35.685Z,18.60
2022-08-19T02:41:05.724Z,18.60
2022-08-19T02:43:34.512Z,18.60
2022-08-19T02:46:01.795Z,18.60
2022-08-19T02:48:28.762Z,18.60
2022-08-19T02:50:58.155Z,18.70
2022-08-19T02:53:27.704Z,18.60
2022-08-19T02:55:55.059Z,18.60
2022-08-19T02:58:23.255Z,18.60
2022-08-19T03:00:54.500Z,18.60
2022-08-19T03:03:21.358Z,18.70
2022-08-19T03:05:56.614Z,18.60
2022-08-19T03:08:25.187Z,18.60
2022-08-19T03:10:53.027Z,18.60
2022-08-19T03:13:19.759Z,18.60
2022-08-19T03:15:48.472Z,18.60
2022-08-19T03:18:15.537Z,18.60
2022-08-19T03:20:50.462Z,18.60
2022-08-19T03:23:18.268Z,18.60
2022-08-19T03:25:47.084Z,18.70
2022-08-19T03:28:25.303Z,18.70
2022-08-19T03:31:44.084Z,18.70
2022-08-19T03:34:02.268Z,18.70
2022-08-19T03:36:30.418Z,18.70
2022-08-19T03:39:00.181Z,18.60
2022-08-19T03:41:44.384Z,18.60
2022-08-19T03:44:17.781Z,18.70
2022-08-19T03:46:50.987Z,18.70
2022-08-19T03:49:19.586Z,18.70
2022-08-19T03:51:47.961Z,18.80
2022-08-19T03:54:17.181Z,18.80
2022-08-19T03:56:45.987Z,18.90
2022-08-19T03:59:17.056Z,18.90
2022-08-19T04:01:44.054Z,18.90
2022-08-19T04:04:11.007Z,18.80
2022-08-19T04:06:40.166Z,18.90
2022-08-19T04:09:09.661Z,18.90
2022-08-19T04:11:44.266Z,19.00
2022-08-19T04:14:13.803Z,18.90
2022-08-19T04:16:40.854Z,18.90
2022-08-19T04:19:08.146Z,18.90
2022-08-19T04:21:35.531Z,18.90
2022-08-19T04:24:03.961Z,18.90
2022-08-19T04:26:37.089Z,18.90
2022-08-19T04:29:12.149Z,18.90
2022-08-19T04:31:39.969Z,18.90
2022-08-19T04:34:11.829Z,18.90
2022-08-19T04:36:40.671Z,19.00
2022-08-19T04:39:11.202Z,19.00
2022-08-19T04:41:56.485Z,19.00
2022-08-19T04:44:23.736Z,19.00
2022-08-19T04:46:52.297Z,19.00
2022-08-19T04:49:23.206Z,19.00
2022-08-19T04:51:54.863Z,19.00
2022-08-19T04:54:38.220Z,19.10
2022-08-19T04:57:08.443Z,19.00
2022-08-19T04:59:35.982Z,19.00
2022-08-19T05:02:03.063Z,18.90
2022-08-19T05:04:31.884Z,18.90
2022-08-19T05:07:00.819Z,18.90
2022-08-19T05:09:52.526Z,19.00
2022-08-19T05:12:16.588Z,19.00
2022-08-19T05:14:44.285Z,19.00
2022-08-19T05:17:26.983Z,19.00
2022-08-19T05:20:13.350Z,18.90
2022-08-19T05:22:40.448Z,18.80
2022-08-19T05:25:14.548Z,18.70
2022-08-19T05:27:42.693Z,18.80
2022-08-19T05:30:10.615Z,18.90
2022-08-19T05:32:37.682Z,18.90
2022-08-19T05:35:05.593Z,18.90
2022-08-19T05:37:32.496Z,18.90
2022-08-19T05:39:59.352Z,18.80
2022-08-19T05:42:27.463Z,18.80
2022-08-19T05:44:54.415Z,18.80
2022-08-19T05:47:21.438Z,18.70
2022-08-19T05:49:51.048Z,18.70
2022-08-19T05:52:19.348Z,18.70
2022-08-19T05:54:50.989Z,18.70
2022-08-19T05:57:19.708Z,18.70
2022-08-19T05:59:57.645Z,18.70
2022-08-19T06:02:28.307Z,18.80
2022-08-19T06:04:55.080Z,18.80
2022-08-19T06:07:22.063Z,18.90
2022-08-19T06:09:54.327Z,19.10
2022-08-19T06:12:29.806Z,19.20
2022-08-19T06:15:01.366Z,19.20
2022-08-19T06:17:31.501Z,19.20
2022-08-19T06:19:59.800Z,19.10
2022-08-19T06:22:27.511Z,19.00
2022-08-19T06:24:55.032Z,18.90
2022-08-19T06:27:22.728Z,18.90
2022-08-19T06:29:49.882Z,18.80
2022-08-19T06:32:19.635Z,18.80
2022-08-19T06:34:47.304Z,18.80
2022-08-19T06:37:14.513Z,18.80
2022-08-19T06:39:45.320Z,18.90
2022-08-19T06:42:13.970Z,19.00
2022-08-19T06:44:43.774Z,19.10
2022-08-19T06:47:23.803Z,19.20
2022-08-19T06:50:02.960Z,19.30
2022-08-19T06:52:38.192Z,19.30
2022-08-19T06:55:05.972Z,19.10
2022-08-19T06:57:34.204Z,19.00
2022-08-19T07:00:03.993Z,19.00
2022-08-19T07:02:30.680Z,19.00
2022-08-19T07:04:59.150Z,19.00
2022-08-19T07:07:26.185Z,19.00
2022-08-19T07:09:59.045Z,19.10
2022-08-19T07:12:30.825Z,19.20
2022-08-19T07:14:58.815Z,19.20
2022-08-19T07:17:26.653Z,19.30
2022-08-19T07:19:54.312Z,19.40
2022-08-19T07:22:23.861Z,19.60
2022-08-19T07:24:51.974Z,19.80
2022-08-19T07:27:24.464Z,20.00
2022-08-19T07:29:57.092Z,20.10
2022-08-19T07:32:27.741Z,20.50
2022-08-19T07:34:56.365Z,20.60
2022-08-19T07:37:28.347Z,20.70
2022-08-19T07:39:57.595Z,20.80
2022-08-19T07:42:24.350Z,20.80
2022-08-19T07:44:51.203Z,20.90
2022-08-19T07:47:49.715Z,20.80
2022-08-19T07:50:08.925Z,20.80
2022-08-19T07:52:38.194Z,20.80
2022-08-19T07:55:06.677Z,20.80
2022-08-19T07:57:54.543Z,20.80
2022-08-19T08:00:23.799Z,20.70
2022-08-19T08:02:52.521Z,20.70
2022-08-19T08:05:43.604Z,20.60
2022-08-19T08:08:30.544Z,20.50
2022-08-19T08:10:57.531Z,20.50
2022-08-19T08:13:25.587Z,20.50
2022-08-19T08:15:54.727Z,20.30
2022-08-19T08:18:23.187Z,20.20
2022-08-19T08:20:55.563Z,20.00
2022-08-19T08:23:29.532Z,19.90
2022-08-19T08:25:58.305Z,19.90
2022-08-19T08:28:26.293Z,19.80
2022-08-19T08:30:57.590Z,19.80
2022-08-19T08:33:28.614Z,19.80
2022-08-19T08:36:03.818Z,19.80
2022-08-19T08:38:38.404Z,19.70
2022-08-19T08:41:20.554Z,19.60
2022-08-19T08:43:51.969Z,19.40
2022-08-19T08:46:31.170Z,19.40
2022-08-19T08:49:02.442Z,19.40
2022-08-19T08:51:36.301Z,19.20
2022-08-19T08:54:07.649Z,19.00
2022-08-19T08:56:40.057Z,19.00
2022-08-19T08:59:27.021Z,19.00
2022-08-19T09:01:53.872Z,19.00
2022-08-19T09:04:20.827Z,18.90
2022-08-19T09:07:01.637Z,18.80
2022-08-19T09:09:50.008Z,18.80
2022-08-19T09:12:31.757Z,18.80
2022-08-19T09:15:06.426Z,18.80
2022-08-19T09:17:34.618Z,18.80
2022-08-19T09:20:22.417Z,18.90
2022-08-19T09:22:50.481Z,19.00
2022-08-19T09:25:24.740Z,19.00
2022-08-19T09:28:02.277Z,19.20
2022-08-19T09:30:33.347Z,19.20
2022-08-19T09:33:00.182Z,19.40
2022-08-19T09:35:29.701Z,19.50
2022-08-19T09:37:59.749Z,19.70
2022-08-19T09:40:30.236Z,19.70
2022-08-19T09:42:58.114Z,19.70
2022-08-19T09:45:25.185Z,19.80
2022-08-19T09:47:54.346Z,19.90
2022-08-19T09:50:22.752Z,20.00
2022-08-19T09:52:55.637Z,20.20
2022-08-19T09:55:31.005Z,20.40
2022-08-19T09:58:00.234Z,20.50
2022-08-19T10:00:27.739Z,20.60
2022-08-19T10:02:54.426Z,20.60
2022-08-19T10:05:42.459Z,20.80
2022-08-19T10:08:13.719Z,20.60
2022-08-19T10:10:46.773Z,20.60
2022-08-19T10:13:15.957Z,20.50
2022-08-19T10:15:47.639Z,20.60
2022-08-19T10:18:17.766Z,20.70
2022-08-19T10:20:46.623Z,20.60
2022-08-19T10:23:20.878Z,20.80
2022-08-19T10:25:48.756Z,21.10
2022-08-19T10:28:15.574Z,21.40
2022-08-19T10:30:42.869Z,21.50
2022-08-19T10:33:10.952Z,21.60
2022-08-19T10:35:42.703Z,21.60
2022-08-19T10:38:31.394Z,21.90
2022-08-19T10:40:59.613Z,22.10
2022-08-19T10:43:26.304Z,22.30
2022-08-19T10:45:57.451Z,22.30
2022-08-19T10:48:24.109Z,21.90
2022-08-19T10:51:09.436Z,21.60
2022-08-19T10:53:36.287Z,21.70
2022-08-19T10:56:24.987Z,21.80
2022-08-19T10:58:52.014Z,22.00
2022-08-19T11:01:19.623Z,21.90
2022-08-19T11:03:46.766Z,22.10
2022-08-19T11:06:13.489Z,22.40
2022-08-19T11:08:40.236Z,22.60
2022-08-19T11:11:08.350Z,22.80
2022-08-19T11:13:38.451Z,22.70
2022-08-19T11:16:08.832Z,22.80
2022-08-19T11:18:38.418Z,23.10
2022-08-19T11:21:32.885Z,23.60
2022-08-19T11:24:02.917Z,24.00
2022-08-19T11:26:31.499Z,23.90
2022-08-19T11:28:59.527Z,23.80
2022-08-19T11:31:37.146Z,23.60
2022-08-19T11:34:05.750Z,23.70
2022-08-19T11:36:34.636Z,23.70
2022-08-19T11:39:02.806Z,23.60
2022-08-19T11:41:29.579Z,23.50
2022-08-19T11:43:56.745Z,23.50
2022-08-19T11:46:28.437Z,23.90
2022-08-19T11:48:55.398Z,24.30
2022-08-19T11:51:25.637Z,24.30
2022-08-19T11:53:56.941Z,24.60
2022-08-19T11:56:25.032Z,24.80
2022-08-19T11:58:53.106Z,24.60
2022-08-19T12:01:22.838Z,24.50
2022-08-19T12:03:51.257Z,24.50
2022-08-19T12:06:29.490Z,24.40
2022-08-19T12:09:03.904Z,24.10
2022-08-19T12:11:31.304Z,23.90
2022-08-19T12:14:01.846Z,23.80
2022-08-19T12:16:31.491Z,23.60
2022-08-19T12:19:04.385Z,23.60
2022-08-19T12:21:33.275Z,23.50
2022-08-19T12:24:01.813Z,23.60
2022-08-19T12:26:30.610Z,23.40
2022-08-19T12:28:57.289Z,23.30
2022-08-19T12:31:23.991Z,23.10
2022-08-19T12:33:50.758Z,23.00
2022-08-19T12:36:18.758Z,22.90
2022-08-19T12:38:46.563Z,22.70
2022-08-19T12:41:16.215Z,22.40
2022-08-19T12:43:43.373Z,22.30
2022-08-19T12:46:11.560Z,22.40
2022-08-19T12:48:40.229Z,22.20
2022-08-19T12:51:10.235Z,22.20
2022-08-19T12:53:39.372Z,22.20
2022-08-19T12:56:12.298Z,22.00
2022-08-19T12:58:40.072Z,22.00
2022-08-19T13:01:12.743Z,22.00
2022-08-19T13:03:40.707Z,22.10
2022-08-19T13:06:08.245Z,22.30
2022-08-19T13:08:35.062Z,22.60
2022-08-19T13:11:13.542Z,22.80
2022-08-19T13:13:42.294Z,22.80
2022-08-19T13:16:12.030Z,22.70
2022-08-19T13:18:39.995Z,22.80
2022-08-19T13:21:08.596Z,23.30
2022-08-19T13:23:36.595Z,23.80
2022-08-19T13:26:06.051Z,23.80
2022-08-19T13:28:52.774Z,23.70
2022-08-19T13:31:40.579Z,23.60
2022-08-19T13:34:08.041Z,23.60
2022-08-19T13:36:36.129Z,24.20
2022-08-19T13:39:04.051Z,24.50
2022-08-19T13:41:31.351Z,24.40
2022-08-19T13:43:58.345Z,24.30
2022-08-19T13:46:25.029Z,24.60
2022-08-19T13:48:51.719Z,25.20
2022-08-19T13:51:19.089Z,25.70
2022-08-19T13:53:48.020Z,25.80
2022-08-19T13:56:23.007Z,25.60
2022-08-19T13:58:52.943Z,25.70
2022-08-19T14:01:21.935Z,25.70
2022-08-19T14:03:51.831Z,25.70
2022-08-19T14:06:19.337Z,25.40
2022-08-19T14:08:46.978Z,25.00
2022-08-19T14:11:13.852Z,24.60
2022-08-19T14:13:40.979Z,23.90
2022-08-19T14:16:12.346Z,23.60
2022-08-19T14:18:40.286Z,23.40
2022-08-19T14:21:07.642Z,23.60
2022-08-19T14:23:37.001Z,23.60
2022-08-19T14:26:10.904Z,23.50
2022-08-19T14:28:38.223Z,23.30
2022-08-19T14:31:05.001Z,23.10
2022-08-19T14:33:33.367Z,23.00
2022-08-19T14:36:01.348Z,22.90
2022-08-19T14:38:31.432Z,22.80
2022-08-19T14:41:28.019Z,22.90
2022-08-19T14:43:55.427Z,22.70
2022-08-19T14:46:26.150Z,22.80
2022-08-19T14:48:55.905Z,22.70
2022-08-19T14:51:24.838Z,22.60
2022-08-19T14:53:51.849Z,22.70
2022-08-19T14:56:22.514Z,22.90
2022-08-19T14:58:52.600Z,23.10
2022-08-19T15:01:21.500Z,23.40
2022-08-19T15:03:49.136Z,23.70
2022-08-19T15:06:16.785Z,23.70
2022-08-19T15:08:44.821Z,23.30
2022-08-19T15:11:15.628Z,23.30
2022-08-19T15:13:43.351Z,23.20
2022-08-19T15:16:17.726Z,23.40
2022-08-19T15:18:46.134Z,23.70
2022-08-19T15:21:15.254Z,23.90
2022-08-19T15:23:41.940Z,23.90
2022-08-19T15:26:15.982Z,23.80
2022-08-19T15:28:43.397Z,23.90
2022-08-19T15:31:10.197Z,24.00
2022-08-19T15:33:52.285Z,24.10
2022-08-19T15:36:19.002Z,24.20
2022-08-19T15:38:46.572Z,24.20
2022-08-19T15:41:25.107Z,23.80
2022-08-19T15:43:56.885Z,23.70
2022-08-19T15:46:25.591Z,23.80
2022-08-19T15:48:57.306Z,24.00
2022-08-19T15:51:28.353Z,23.60
2022-08-19T15:53:55.508Z,23.30
2022-08-19T15:56:26.698Z,23.10
2022-08-19T15:59:12.474Z,22.90
2022-08-19T16:01:58.163Z,22.70
2022-08-19T16:04:43.505Z,22.70
2022-08-19T16:07:10.291Z,22.90
2022-08-19T16:09:37.073Z,22.80
2022-08-19T16:12:05.887Z,22.70
2022-08-19T16:14:35.402Z,22.60
2022-08-19T16:17:02.251Z,22.70
2022-08-19T16:19:28.946Z,22.40
2022-08-19T16:21:56.751Z,22.40
2022-08-19T16:24:26.103Z,22.20
2022-08-19T16:26:53.673Z,22.00
2022-08-19T16:29:34.257Z,22.00
2022-08-19T16:32:10.250Z,21.90
2022-08-19T16:34:39.245Z,21.90
2022-08-19T16:37:06.033Z,21.90
2022-08-19T16:39:32.889Z,21.90
2022-08-19T16:41:59.764Z,21.80
2022-08-19T16:44:29.589Z,21.70
2022-08-19T16:46:59.577Z,21.50
2022-08-19T16:49:53.026Z,21.40
2022-08-19T16:52:16.115Z,21.50
2022-08-19T16:54:43.654Z,21.50
2022-08-19T16:57:11.874Z,21.60
2022-08-19T16:59:43.709Z,21.70
2022-08-19T17:02:19.913Z,21.50
2022-08-19T17:04:57.190Z,21.50
2022-08-19T17:07:33.133Z,21.30
2022-08-19T17:10:02.255Z,21.30
2022-08-19T17:12:32.084Z,21.20
2022-08-19T17:15:00.649Z,21.00
2022-08-19T17:17:29.369Z,20.90
2022-08-19T17:19:56.941Z,20.80
2022-08-19T17:22:23.615Z,20.80
2022-08-19T17:24:50.333Z,20.70
2022-08-19T17:27:17.126Z,20.70
2022-08-19T17:29:46.862Z,20.60
2022-08-19T17:32:14.452Z,20.60
2022-08-19T17:34:41.222Z,20.50
2022-08-19T17:37:08.236Z,20.30
2022-08-19T17:39:39.594Z,20.20
2022-08-19T17:42:08.222Z,20.10
2022-08-19T17:44:36.664Z,20.00
2022-08-19T17:47:04.311Z,19.90
2022-08-19T17:49:33.235Z,19.90
2022-08-19T17:52:00.578Z,19.80
2022-08-19T17:54:33.229Z,19.80
2022-08-19T17:57:01.274Z,19.80
2022-08-19T17:59:27.984Z,19.70
2022-08-19T18:01:57.760Z,19.70
2022-08-19T18:04:25.817Z,19.70
2022-08-19T18:06:55.066Z,19.70
2022-08-19T18:09:24.426Z,19.70
2022-08-19T18:11:53.336Z,19.70
2022-08-19T18:14:23.050Z,19.70
2022-08-19T18:16:50.478Z,19.70
2022-08-19T18:19:17.857Z,19.60
2022-08-19T18:21:44.539Z,19.60
2022-08-19T18:24:12.629Z,19.60
2022-08-19T18:26:39.770Z,19.60
2022-08-19T18:29:09.300Z,19.60
2022-08-19T18:31:38.604Z,19.60
2022-08-19T18:34:06.118Z,19.60
2022-08-19T18:36:53.077Z,19.60
2022-08-19T18:39:39.299Z,19.60
2022-08-19T18:42:33.549Z,19.50
2022-08-19T18:45:18.997Z,19.50
2022-08-19T18:48:04.439Z,19.50
2022-08-19T18:50:31.205Z,19.50
2022-08-19T18:52:57.858Z,19.50
2022-08-19T18:55:26.782Z,19.40
2022-08-19T18:57:53.684Z,19.40
2022-08-19T19:00:21.255Z,19.40
2022-08-19T19:02:47.967Z,19.30
2022-08-19T19:05:15.382Z,19.30
2022-08-19T19:07:42.607Z,19.40
2022-08-19T19:10:09.641Z,19.40
2022-08-19T19:12:41.055Z,19.30
2022-08-19T19:15:08.803Z,19.30
2022-08-19T19:17:35.576Z,19.20
2022-08-19T19:20:02.564Z,19.20
2022-08-19T19:22:29.225Z,19.10
2022-08-19T19:24:56.402Z,19.10
2022-08-19T19:27:23.171Z,19.10
2022-08-19T19:29:52.393Z,19.10
2022-08-19T19:32:23.199Z,19.00
2022-08-19T19:34:50.703Z,19.00
2022-08-19T19:37:17.747Z,18.90
2022-08-19T19:39:46.553Z,18.70
2022-08-19T19:42:20.228Z,18.50
2022-08-19T19:44:50.224Z,18.30
2022-08-19T19:47:18.744Z,18.20
2022-08-19T19:50:12.736Z,18.10
2022-08-19T19:52:34.269Z,18.10
2022-08-19T19:55:01.529Z,17.90
2022-08-19T19:57:30.354Z,17.90
2022-08-19T19:59:57.224Z,17.90
2022-08-19T20:02:25.158Z,17.90
2022-08-19T20:04:52.311Z,17.80
2022-08-19T20:07:39.309Z,17.70
2022-08-19T20:10:06.332Z,17.80
2022-08-19T20:12:33.106Z,17.80
2022-08-19T20:14:59.783Z,17.80
2022-08-19T20:17:26.825Z,17.80
2022-08-19T20:19:54.196Z,17.80
2022-08-19T20:22:20.863Z,17.80
2022-08-19T20:24:48.389Z,17.70
2022-08-19T20:27:15.078Z,17.70
2022-08-19T20:29:44.582Z,17.70
2022-08-19T20:32:12.697Z,17.70
2022-08-19T20:34:40.545Z,17.70
2022-08-19T20:37:09.446Z,17.60
2022-08-19T20:39:36.861Z,17.70
2022-08-19T20:42:04.037Z,17.60
2022-08-19T20:44:30.811Z,17.70
2022-08-19T20:47:01.722Z,17.70
2022-08-19T20:49:30.204Z,17.70
2022-08-19T20:51:57.405Z,17.80
2022-08-19T20:54:24.465Z,17.70
2022-08-19T20:56:51.685Z,17.70
2022-08-19T20:59:20.165Z,17.70
2022-08-19T21:01:47.358Z,17.70
2022-08-19T21:04:14.566Z,17.70
2022-08-19T21:06:42.322Z,17.70
2022-08-19T21:09:13.516Z,17.60
2022-08-19T21:11:40.352Z,17.70
2022-08-19T21:14:07.487Z,17.70
2022-08-19T21:16:34.359Z,17.70
2022-08-19T21:19:01.977Z,17.60
2022-08-19T21:21:28.773Z,17.60
2022-08-19T21:23:55.528Z,17.60
2022-08-19T21:26:22.425Z,17.60
2022-08-19T21:28:49.255Z,17.60
2022-08-19T21:31:17.961Z,17.60
2022-08-19T21:33:45.114Z,17.70
2022-08-19T21:36:11.887Z,17.70
2022-08-19T21:38:38.681Z,17.60
2022-08-19T21:41:06.502Z,17.60
2022-08-19T21:43:37.384Z,17.60
2022-08-19T21:46:04.630Z,17.60
2022-08-19T21:48:31.341Z,17.60
2022-08-19T21:50:58.022Z,17.50
2022-08-19T21:53:24.679Z,17.40
2022-08-19T21:55:58.427Z,17.40
2022-08-19T21:58:28.118Z,17.40
2022-08-19T22:00:59.192Z,17.30
2022-08-19T22:03:26.854Z,17.30
2022-08-19T22:05:53.823Z,17.30
2022-08-19T22:08:20.511Z,17.30
2022-08-19T22:10:49.003Z,17.30
2022-08-19T22:13:17.403Z,17.40
2022-08-19T22:15:50.150Z,17.40
2022-08-19T22:18:17.844Z,17.40
2022-08-19T22:20:45.771Z,17.40
2022-08-19T22:23:12.491Z,17.40
2022-08-19T22:25:45.562Z,17.50
2022-08-19T22:28:16.978Z,17.50
2022-08-19T22:30:47.146Z,17.50
2022-08-19T22:33:18.678Z,17.50
2022-08-19T22:35:47.035Z,17.50
2022-08-19T22:38:14.743Z,17.50
2022-08-19T22:40:47.252Z,17.50
2022-08-19T22:43:24.701Z,17.40
2022-08-19T22:45:53.779Z,17.40
2022-08-19T22:48:24.503Z,17.40
2022-08-19T22:51:10.740Z,17.30
2022-08-19T22:53:40.462Z,17.30
2022-08-19T22:56:14.589Z,17.30
2022-08-19T22:58:42.337Z,17.30
2022-08-19T23:01:11.583Z,17.30
2022-08-19T23:03:43.251Z,17.30
2022-08-19T23:06:10.405Z,17.30
2022-08-19T23:08:39.662Z,17.30
2022-08-19T23:11:06.847Z,17.30
2022-08-19T23:13:33.661Z,17.30
2022-08-19T23:16:00.377Z,17.30
2022-08-19T23:18:27.648Z,17.30
2022-08-19T23:20:54.586Z,17.30
2022-08-19T23:23:24.607Z,17.40
2022-08-19T23:25:53.872Z,17.40
2022-08-19T23:28:39.710Z,17.40
2022-08-19T23:31:07.233Z,17.40
2022-08-19T23:33:44.376Z,17.30
2022-08-19T23:36:18.888Z,17.20
2022-08-19T23:38:48.169Z,17.20
2022-08-19T23:41:16.799Z,17.30
2022-08-19T23:43:44.462Z,17.30
2022-08-19T23:46:13.426Z,17.30
2022-08-19T23:48:40.597Z,17.20
2022-08-19T23:51:10.131Z,17.20
2022-08-19T23:53:41.379Z,17.20
2022-08-19T23:56:09.502Z,17.20
2022-08-19T23:58:37.596Z,17.20
